Carey, ID

11:52 PM MDT on October 24, 2014 (GMT -0600)
Friedman Memorial | Change Station
CLOSE
Current Station
Airport
Location: Hailey,
Elevation: 5315 ft
Nearby Weather Stations
Active Advisory: Special Statement

Elev 5315 ft 43.50 °N, 114.30 °W | Updated 17 minutes ago

Clear
Clear
43 °F
Feels Like 37 °F
N
12
Wind Variable Wind from NW

Today
High -- | Low -- °F
--% Chance of Precip.
Yesterday
High -- | Low -- °F
Precip. -- in
8:00 AM 6:38 PM
New Moon, 2% visible
Pressure 30.13 in
Visibility 10.0 miles
Clouds Clear
Windchill 37 °F
Dew Point 32 °F
Humidity 66%
Rainfall 0.00 in
Snow Depth Not available.
UV 0 out of 12
Pollen 2.70 out of 12
Air Quality Not available.
Flu Activity Not available.
METAR KSUN 250535Z AUTO 31010KT 10SM CLR 06/00 A3013 RMK AO2

More Conditions Fewer Conditions

Pressure 30.13 in
Visibility 10.0 miles
Clouds Clear
Windchill 37 °F
Dew Point 32 °F
Humidity 66%
Rainfall 0.00 in
Snow Depth Not available.
UV 0 out of 12
Pollen 2.70 out of 12
Air Quality Not available.
Flu Activity Not available.
METAR KSUN 250535Z AUTO 31010KT 10SM CLR 06/00 A3013 RMK AO2

More Conditions Fewer Conditions

10-Day Weather Forecast

Almanac

Astronomy

Oct. 24, 2014 Rise Set
Actual Time 8:00 AM MDT 6:38 PM MDT
Civil Twilight 7:31 AM MDT 7:07 PM MDT
Nautical Twilight 6:58 AM MDT 7:40 PM MDT
Astronomical Twilight 6:25 AM MDT 8:13 PM MDT
Moon 8:44 AM MDT (10/24) 7:19 PM MDT (10/24)
Length of Visible Light 11h 36m
Length of Day
10h 37m
Tomorrow will be 2m 45s shorter.
New Moon, 2% of the Moon is Illuminated
Oct 25
New Moon
Oct 30
First Quarter
Nov 6
Full
Nov 14
Last Quarter
Nov 22
New

Yesterday's Extremes

State Highs State Lows

Community

WunderPhotos

Upload Photos

1,764,785 photos uploaded!

Nearby

Snow Depth

Station Depth Elevation
Swede Peak 1 in 7640 ft
Hyndman 1 in 7440 ft
Bear Canyon 0 in 7900 ft
Lost-Wood Divide 1 in 7900 ft
Dollarhide Summit 0 in 8420 ft

Earthquake Activity

City Distance Mag. Time & Date
No recent earthquake activity has been reported nearby.
Minimum magnitude displayed is 2.5.

Coastal Water Temperatures

Place Temperature
No Stations Reporting

Nearby Weather Stations